Time;durP1;ratioP1;P1;durP2;ratioP2;P2;SDS_P1;SDS_P2;PMS_P1;PMS_P2;Temp;Humidity;BMP_temperature;BMP_pressure;BME280_temperature;BME280_humidity;BME280_pressure;Samples;Min_cycle;Max_cycle;Signal;HPM_P1;HPM_P2
2021/07/19 00:01:31;;;;;;;14.82;10.52;;;17.20;99.90;;;;;;6152574;23;20546;-92
2021/07/19 00:03:59;;;;;;;12.75;10.32;;;17.20;99.90;;;;;;6152809;23;20274;-92
2021/07/19 00:06:27;;;;;;;11.90;10.05;;;17.20;99.90;;;;;;6154669;23;20262;-92
2021/07/19 00:08:54;;;;;;;13.40;10.57;;;17.20;99.90;;;;;;6153838;23;20361;-92
2021/07/19 00:11:22;;;;;;;14.80;10.80;;;17.20;99.90;;;;;;6158666;23;20257;-92
2021/07/19 00:13:49;;;;;;;11.70;10.30;;;17.10;99.90;;;;;;6164014;23;20233;-92
2021/07/19 00:16:16;;;;;;;16.40;10.70;;;17.00;99.90;;;;;;6153509;23;20278;-92
2021/07/19 00:18:43;;;;;;;13.05;10.98;;;16.90;99.90;;;;;;6152119;23;20231;-92
2021/07/19 00:21:11;;;;;;;13.35;10.30;;;16.80;99.90;;;;;;6154013;23;20252;-92
2021/07/19 00:23:38;;;;;;;14.27;10.55;;;16.80;99.90;;;;;;6153502;23;20278;-92
2021/07/19 00:26:05;;;;;;;12.68;10.63;;;16.90;99.90;;;;;;6153891;23;20687;-93
2021/07/19 00:31:13;;;;;;;12.23;9.88;;;16.90;99.90;;;;;;6153074;23;20178;-92
2021/07/19 00:33:40;;;;;;;11.60;10.50;;;16.90;99.90;;;;;;6154245;23;20290;-92
2021/07/19 00:36:08;;;;;;;11.63;9.98;;;16.80;99.90;;;;;;6154250;23;20257;-92
2021/07/19 00:38:36;;;;;;;11.18;10.05;;;16.70;99.90;;;;;;6152346;23;20203;-91
2021/07/19 00:41:03;;;;;;;12.48;10.98;;;16.70;99.90;;;;;;6153783;23;20603;-91
2021/07/19 00:43:30;;;;;;;12.95;10.75;;;16.70;99.90;;;;;;6154298;23;20209;-91
2021/07/19 00:45:57;;;;;;;12.85;10.68;;;16.70;99.90;;;;;;6153986;23;20278;-92
2021/07/19 00:51:05;;;;;;;12.95;10.20;;;16.80;99.90;;;;;;6137161;23;20491;-92
2021/07/19 00:53:34;;;;;;;11.93;10.35;;;16.80;99.90;;;;;;6152555;23;20241;-91
2021/07/19 00:59:03;;;;;;;12.93;10.05;;;16.80;99.90;;;;;;6154716;23;20535;-91
2021/07/19 01:01:32;;;;;;;13.52;10.30;;;16.70;99.90;;;;;;6155412;23;20671;-91
2021/07/19 01:04:01;;;;;;;12.40;10.63;;;16.70;99.90;;;;;;6155809;23;20210;-91
2021/07/19 01:06:30;;;;;;;11.98;10.70;;;16.60;99.90;;;;;;6157148;23;20282;-92
2021/07/19 01:08:58;;;;;;;11.65;10.45;;;16.60;99.90;;;;;;6156203;23;20218;-92
2021/07/19 01:14:09;;;;;;;13.57;10.77;;;16.70;99.90;;;;;;6154824;23;20226;-91
2021/07/19 01:16:36;;;;;;;12.48;10.65;;;16.70;99.90;;;;;;6131906;23;20211;-92
2021/07/19 01:19:02;;;;;;;13.00;10.10;;;16.80;99.90;;;;;;6155688;23;20666;-92
2021/07/19 01:22:00;;;;;;;14.95;10.25;;;16.70;99.90;;;;;;6156915;23;20262;-93
2021/07/19 01:28:04;;;;;;;11.32;10.23;;;16.50;99.90;;;;;;6153755;23;20171;-92
2021/07/19 01:33:37;;;;;;;12.55;10.23;;;16.40;99.90;;;;;;6153117;23;20207;-92
2021/07/19 01:36:05;;;;;;;12.07;10.02;;;16.50;99.90;;;;;;6156945;23;20183;-91
2021/07/19 01:44:16;;;;;;;11.75;9.75;;;16.60;99.90;;;;;;6153611;23;20232;-92
2021/07/19 01:46:46;;;;;;;11.15;9.98;;;16.70;99.90;;;;;;6154957;23;20171;-91
2021/07/19 01:49:14;;;;;;;13.07;10.25;;;16.70;99.90;;;;;;6151052;23;20215;-92
2021/07/19 01:51:41;;;;;;;12.90;10.32;;;16.70;99.90;;;;;;6153139;23;20258;-92
2021/07/19 01:54:13;;;;;;;11.02;9.93;;;16.70;99.90;;;;;;6152627;23;20238;-92
2021/07/19 01:57:00;;;;;;;12.82;10.07;;;16.70;99.90;;;;;;6145111;23;20175;-92
2021/07/19 02:05:16;;;;;;;10.32;9.25;;;16.40;99.90;;;;;;6134017;23;20190;-91
2021/07/19 02:07:48;;;;;;;11.25;9.80;;;16.40;99.90;;;;;;6156019;23;20233;-92
2021/07/19 02:10:15;;;;;;;10.20;9.00;;;16.40;99.90;;;;;;6154837;23;20588;-91
2021/07/19 02:12:44;;;;;;;11.40;9.00;;;16.40;99.90;;;;;;6155770;23;20234;-92
2021/07/19 02:15:13;;;;;;;10.15;8.98;;;16.40;99.90;;;;;;6154473;23;20307;-92
2021/07/19 02:17:45;;;;;;;11.80;9.30;;;16.40;99.90;;;;;;6155745;23;20668;-92
2021/07/19 02:20:12;;;;;;;9.43;8.43;;;16.30;99.90;;;;;;6154322;23;20286;-92
2021/07/19 02:22:41;;;;;;;10.25;9.02;;;16.30;99.90;;;;;;6156115;23;20175;-92
2021/07/19 02:25:11;;;;;;;9.90;8.65;;;16.30;99.90;;;;;;6155633;23;20226;-91
2021/07/19 02:27:39;;;;;;;9.65;8.38;;;16.20;99.90;;;;;;6156303;23;20266;-92
2021/07/19 02:30:08;;;;;;;8.93;8.02;;;16.10;99.90;;;;;;6154971;23;20537;-92
2021/07/19 02:32:36;;;;;;;10.00;8.68;;;16.20;99.90;;;;;;6155925;23;20274;-92
2021/07/19 02:37:49;;;;;;;11.35;8.57;;;16.20;99.90;;;;;;6150335;23;20168;-92
2021/07/19 02:40:19;;;;;;;11.85;7.82;;;16.10;99.90;;;;;;6156860;23;20695;-92
2021/07/19 02:42:50;;;;;;;10.10;8.95;;;16.10;99.90;;;;;;6158922;23;20213;-91
2021/07/19 02:45:20;;;;;;;9.00;8.10;;;16.10;99.90;;;;;;6158642;23;20210;-92
2021/07/19 02:47:49;;;;;;;9.38;8.40;;;16.10;99.90;;;;;;6157756;23;20227;-92
2021/07/19 02:53:16;;;;;;;11.18;7.88;;;16.00;99.90;;;;;;6160691;23;20210;-91
2021/07/19 02:55:45;;;;;;;9.30;8.25;;;16.00;99.90;;;;;;6128193;23;20187;-92
2021/07/19 02:58:14;;;;;;;10.82;8.30;;;15.90;99.90;;;;;;6157398;23;20675;-92
2021/07/19 03:03:27;;;;;;;8.88;7.97;;;15.90;99.90;;;;;;6154081;23;20175;-91
2021/07/19 03:09:02;;;;;;;9.20;8.27;;;16.00;99.90;;;;;;6154964;23;20807;-92
2021/07/19 03:11:40;;;;;;;8.98;7.68;;;15.90;99.90;;;;;;6156615;23;20210;-92
2021/07/19 03:14:33;;;;;;;10.32;8.23;;;15.80;99.90;;;;;;6156107;23;20206;-91
2021/07/19 03:17:22;;;;;;;8.55;7.72;;;15.70;99.90;;;;;;6152177;23;20226;-92
2021/07/19 03:19:53;;;;;;;8.95;7.90;;;15.70;99.90;;;;;;6154983;23;20359;-92
2021/07/19 03:25:02;;;;;;;9.52;7.97;;;15.80;99.90;;;;;;6118718;23;20189;-92
2021/07/19 03:27:30;;;;;;;10.63;8.13;;;15.80;99.90;;;;;;6156329;23;20703;-92
2021/07/19 03:29:58;;;;;;;10.15;8.05;;;15.70;99.90;;;;;;6153647;23;20206;-92
2021/07/19 03:32:26;;;;;;;12.15;8.13;;;15.60;99.90;;;;;;6155561;23;20215;-92
2021/07/19 03:34:54;;;;;;;8.63;7.70;;;15.60;99.90;;;;;;6156603;23;20207;-91
2021/07/19 03:40:26;;;;;;;9.75;7.60;;;15.50;99.90;;;;;;6107474;23;20183;-92
2021/07/19 03:42:57;;;;;;;8.70;7.40;;;15.50;99.90;;;;;;6156134;23;20202;-92
2021/07/19 03:45:25;;;;;;;8.50;7.60;;;15.50;99.90;;;;;;6155923;23;20225;-91
2021/07/19 03:47:52;;;;;;;8.63;7.60;;;15.40;99.90;;;;;;6156635;23;20291;-92
2021/07/19 03:50:21;;;;;;;8.40;7.20;;;15.50;99.90;;;;;;6155312;23;20277;-92
2021/07/19 03:55:31;;;;;;;8.18;7.20;;;15.50;99.90;;;;;;6157508;23;20263;-92
2021/07/19 03:57:59;;;;;;;7.72;7.00;;;15.40;99.90;;;;;;6155866;23;20259;-92
2021/07/19 04:00:29;;;;;;;9.57;7.18;;;15.40;99.90;;;;;;6155834;23;20278;-91
2021/07/19 04:02:57;;;;;;;8.95;6.10;;;15.50;99.90;;;;;;6156673;23;20175;-92
2021/07/19 04:05:27;;;;;;;7.97;7.18;;;15.60;99.90;;;;;;6156044;23;20234;-92
2021/07/19 04:07:56;;;;;;;7.85;6.55;;;15.70;99.90;;;;;;6157244;23;20175;-92
2021/07/19 04:10:24;;;;;;;10.05;6.95;;;15.80;99.90;;;;;;6156496;23;20507;-91
2021/07/19 04:12:53;;;;;;;7.68;6.97;;;15.80;99.90;;;;;;6158029;23;20563;-92
2021/07/19 04:15:20;;;;;;;7.28;6.57;;;15.80;99.90;;;;;;6157006;23;20199;-91
2021/07/19 04:17:47;;;;;;;7.05;6.38;;;15.90;99.90;;;;;;6157662;23;20200;-91
2021/07/19 04:20:17;;;;;;;8.18;7.13;;;16.10;99.90;;;;;;6156684;23;20199;-92
2021/07/19 04:22:44;;;;;;;9.07;6.68;;;16.20;99.90;;;;;;6157407;23;20230;-91
2021/07/19 04:25:33;;;;;;;7.22;6.53;;;16.20;99.90;;;;;;6154288;23;20209;-90
2021/07/19 04:28:00;;;;;;;7.32;6.63;;;16.20;99.90;;;;;;6154300;23;20207;-90
2021/07/19 04:30:32;;;;;;;7.38;6.05;;;16.30;99.90;;;;;;6155006;23;20230;-92
2021/07/19 04:33:00;;;;;;;7.72;6.95;;;16.30;99.90;;;;;;6158181;23;20187;-91
2021/07/19 04:35:27;;;;;;;7.32;6.60;;;16.40;99.90;;;;;;6157284;23;20233;-91
2021/07/19 04:37:55;;;;;;;11.38;6.68;;;16.50;99.90;;;;;;6155561;23;20255;-90
2021/07/19 04:40:25;;;;;;;8.63;6.90;;;16.50;99.90;;;;;;6153334;23;20199;-92
2021/07/19 04:42:56;;;;;;;7.80;6.82;;;16.50;99.90;;;;;;6155263;23;20514;-89
2021/07/19 04:45:23;;;;;;;9.13;6.00;;;16.50;99.90;;;;;;6154172;23;20202;-91
2021/07/19 04:47:50;;;;;;;7.20;6.50;;;16.60;99.90;;;;;;6155003;23;20205;-91
2021/07/19 04:50:18;;;;;;;7.72;6.70;;;16.70;99.90;;;;;;6154695;23;20207;-92
2021/07/19 04:52:48;;;;;;;8.73;6.43;;;16.70;99.90;;;;;;6155643;23;20278;-92
2021/07/19 04:55:20;;;;;;;6.65;6.07;;;16.80;99.90;;;;;;6154660;23;20286;-91
2021/07/19 05:00:39;;;;;;;7.57;6.20;;;16.80;99.90;;;;;;6152328;23;20230;-91
2021/07/19 05:03:06;;;;;;;7.07;6.35;;;16.90;99.90;;;;;;6154989;23;20251;-89
2021/07/19 05:05:35;;;;;;;8.30;5.88;;;17.00;99.90;;;;;;6155095;23;20872;-92
2021/07/19 05:08:03;;;;;;;9.50;6.35;;;17.10;99.90;;;;;;6156553;23;20210;-91
2021/07/19 05:10:30;;;;;;;8.35;6.70;;;17.20;99.90;;;;;;6156752;23;20394;-90
2021/07/19 05:12:58;;;;;;;7.57;6.28;;;17.30;99.90;;;;;;6156360;23;20286;-90
2021/07/19 05:15:25;;;;;;;7.65;6.47;;;17.40;99.90;;;;;;6158142;23;20214;-91
2021/07/19 05:17:54;;;;;;;6.95;6.28;;;17.50;99.60;;;;;;6158399;23;20168;-91
2021/07/19 05:20:23;;;;;;;10.00;7.03;;;17.60;99.40;;;;;;6155558;23;20254;-92
2021/07/19 05:22:51;;;;;;;7.60;6.80;;;17.60;99.10;;;;;;6156793;23;20210;-91
2021/07/19 05:25:22;;;;;;;11.25;6.90;;;17.40;99.40;;;;;;6154475;23;20237;-91
2021/07/19 05:28:04;;;;;;;7.38;6.68;;;17.40;99.90;;;;;;6154702;23;20205;-91
2021/07/19 05:30:33;;;;;;;8.73;7.68;;;17.50;99.90;;;;;;6154537;23;20202;-90
2021/07/19 05:33:01;;;;;;;11.00;7.93;;;17.60;99.90;;;;;;6156802;23;20410;-91
2021/07/19 05:35:31;;;;;;;9.43;8.07;;;17.50;99.80;;;;;;6156281;23;20203;-91
2021/07/19 05:37:57;;;;;;;13.45;12.05;;;17.60;99.90;;;;;;6158928;23;20205;-91
2021/07/19 05:40:24;;;;;;;14.07;11.45;;;17.70;99.80;;;;;;6156189;23;20231;-91
2021/07/19 05:42:52;;;;;;;10.02;8.63;;;17.70;99.80;;;;;;6168531;23;20182;-91
2021/07/19 05:45:19;;;;;;;12.68;10.73;;;17.80;99.60;;;;;;6157818;23;20481;-91
2021/07/19 05:47:46;;;;;;;11.20;9.40;;;17.80;99.50;;;;;;6156345;23;20604;-91
2021/07/19 05:50:15;;;;;;;11.93;8.70;;;18.00;99.50;;;;;;6154403;23;20237;-91
2021/07/19 05:52:42;;;;;;;12.18;8.88;;;18.00;99.00;;;;;;6156106;23;20186;-91
2021/07/19 05:55:10;;;;;;;13.82;9.27;;;18.20;99.10;;;;;;6153377;23;20804;-91
2021/07/19 05:57:37;;;;;;;12.25;9.70;;;18.50;97.70;;;;;;6147790;23;20270;-92
2021/07/19 06:00:09;;;;;;;12.18;8.30;;;18.80;96.90;;;;;;6155681;23;20241;-92
2021/07/19 06:02:37;;;;;;;14.40;9.48;;;18.90;96.90;;;;;;6131802;23;20495;-92
2021/07/19 06:05:07;;;;;;;12.18;8.57;;;18.90;96.80;;;;;;6154892;23;20207;-91
2021/07/19 06:07:36;;;;;;;14.45;9.88;;;18.80;96.50;;;;;;6156132;23;20207;-91
2021/07/19 06:10:05;;;;;;;16.73;10.45;;;18.80;96.50;;;;;;6154369;23;20227;-91
2021/07/19 06:12:32;;;;;;;19.30;11.55;;;18.80;96.30;;;;;;6157581;23;20164;-93
2021/07/19 06:15:00;;;;;;;87.90;47.25;;;18.80;96.60;;;;;;6157385;23;20287;-93
2021/07/19 06:17:27;;;;;;;60.47;33.53;;;18.80;97.00;;;;;;6156886;23;20647;-93
2021/07/19 06:19:53;;;;;;;93.78;46.75;;;18.90;96.60;;;;;;6155019;23;20278;-91
2021/07/19 06:22:21;;;;;;;13.10;9.95;;;18.80;96.80;;;;;;6154101;23;20570;-91
2021/07/19 06:24:50;;;;;;;15.60;11.30;;;18.80;96.90;;;;;;6153854;23;20320;-92
2021/07/19 06:27:18;;;;;;;50.97;29.20;;;18.80;97.30;;;;;;6150715;23;20168;-91
2021/07/19 06:29:45;;;;;;;17.40;13.32;;;18.90;97.70;;;;;;6154491;23;20211;-92
2021/07/19 06:32:12;;;;;;;14.02;10.23;;;18.90;97.30;;;;;;6154130;23;20210;-92
2021/07/19 06:34:39;;;;;;;18.55;11.88;;;19.00;97.10;;;;;;6153620;23;20278;-92
2021/07/19 06:37:07;;;;;;;15.30;11.48;;;19.10;96.20;;;;;;6153415;23;20179;-92
2021/07/19 06:39:33;;;;;;;13.43;10.43;;;19.20;95.40;;;;;;6155136;23;20562;-91
2021/07/19 06:42:02;;;;;;;11.95;10.00;;;19.20;94.70;;;;;;6154665;23;20175;-92
2021/07/19 06:44:29;;;;;;;17.35;11.93;;;19.20;94.70;;;;;;6155037;23;20270;-92
2021/07/19 06:46:58;;;;;;;17.48;9.82;;;19.30;94.90;;;;;;6153597;23;20843;-91
2021/07/19 06:49:25;;;;;;;11.73;8.95;;;19.30;94.90;;;;;;6153672;23;20206;-90
2021/07/19 06:51:52;;;;;;;14.20;9.65;;;19.40;94.00;;;;;;6151677;23;20190;-91
2021/07/19 06:54:19;;;;;;;15.90;9.50;;;19.40;94.00;;;;;;6154819;23;20230;-91
2021/07/19 06:56:46;;;;;;;10.48;9.13;;;19.50;93.10;;;;;;6157414;23;20211;-89
2021/07/19 06:59:15;;;;;;;10.70;9.27;;;19.50;93.00;;;;;;6155805;23;20274;-90
2021/07/19 07:01:43;;;;;;;12.70;9.63;;;19.60;93.90;;;;;;6156315;23;20249;-91
2021/07/19 07:04:10;;;;;;;11.88;9.57;;;19.70;93.70;;;;;;6155454;23;20270;-92
2021/07/19 07:06:37;;;;;;;10.30;8.77;;;19.80;93.30;;;;;;6155525;23;20298;-91
2021/07/19 07:09:06;;;;;;;14.23;9.23;;;19.90;92.70;;;;;;6156853;23;20219;-89
2021/07/19 07:11:33;;;;;;;12.18;8.73;;;20.00;93.20;;;;;;6156989;23;20246;-90
2021/07/19 07:14:00;;;;;;;14.15;10.07;;;20.10;92.70;;;;;;6154494;23;20274;-89
2021/07/19 07:16:29;;;;;;;9.65;8.65;;;20.30;92.70;;;;;;6162022;23;20175;-87
2021/07/19 07:18:57;;;;;;;13.50;9.80;;;20.60;91.60;;;;;;6169908;23;20203;-87
2021/07/19 07:21:24;;;;;;;13.00;8.30;;;20.90;88.80;;;;;;6170641;23;20181;-87
2021/07/19 07:23:51;;;;;;;12.88;9.55;;;20.90;88.80;;;;;;6161144;23;20214;-91
2021/07/19 07:26:19;;;;;;;11.60;8.55;;;21.00;89.20;;;;;;6159508;23;20179;-89
2021/07/19 07:28:46;;;;;;;13.57;9.13;;;21.20;89.70;;;;;;6162158;23;21569;-88
2021/07/19 07:31:13;;;;;;;13.07;10.70;;;21.20;88.20;;;;;;6163180;23;20190;-87
2021/07/19 07:33:42;;;;;;;11.55;9.48;;;21.20;86.60;;;;;;6162314;23;20195;-88
2021/07/19 07:36:09;;;;;;;11.73;9.60;;;21.20;86.40;;;;;;6162838;23;20218;-89
2021/07/19 07:38:36;;;;;;;11.05;8.98;;;21.30;86.30;;;;;;6161552;23;20640;-89
2021/07/19 07:41:03;;;;;;;12.50;9.95;;;21.40;85.40;;;;;;6156902;23;20179;-90
2021/07/19 07:43:30;;;;;;;11.57;9.80;;;21.40;85.70;;;;;;6153919;23;20258;-89
2021/07/19 07:45:58;;;;;;;14.02;10.00;;;21.30;85.20;;;;;;6148697;23;20762;-90
2021/07/19 07:48:25;;;;;;;14.63;10.65;;;21.30;82.60;;;;;;6148633;23;20282;-91
2021/07/19 07:50:53;;;;;;;13.02;9.90;;;21.20;84.00;;;;;;6149150;23;20660;-91
2021/07/19 07:53:20;;;;;;;11.70;9.70;;;21.30;84.70;;;;;;6148557;23;20532;-90
2021/07/19 07:55:48;;;;;;;11.93;9.30;;;21.30;85.20;;;;;;6149424;23;20683;-90
2021/07/19 07:58:15;;;;;;;13.90;9.80;;;21.40;85.20;;;;;;6151347;23;20632;-88
2021/07/19 08:00:42;;;;;;;14.35;10.00;;;21.50;81.90;;;;;;6153560;23;20259;-89
2021/07/19 08:03:09;;;;;;;13.32;8.68;;;21.60;82.20;;;;;;6156682;23;20583;-89
2021/07/19 08:05:36;;;;;;;16.77;9.07;;;22.00;82.20;;;;;;6153643;23;20726;-91
2021/07/19 08:08:05;;;;;;;10.85;8.73;;;22.30;77.70;;;;;;6151988;23;20257;-91
2021/07/19 08:10:33;;;;;;;14.52;8.68;;;22.60;77.80;;;;;;6152659;23;20286;-90
2021/07/19 08:13:00;;;;;;;10.10;8.27;;;22.60;76.90;;;;;;6153768;23;20186;-89
2021/07/19 08:15:27;;;;;;;11.32;8.80;;;22.60;78.30;;;;;;6152769;23;20533;-90
2021/07/19 08:17:54;;;;;;;10.02;7.43;;;22.50;80.70;;;;;;6153112;23;20615;-90
2021/07/19 08:20:23;;;;;;;8.82;7.93;;;22.60;77.10;;;;;;6153721;23;20667;-90
2021/07/19 08:22:50;;;;;;;8.02;6.72;;;22.80;74.90;;;;;;6154583;23;20813;-89
2021/07/19 08:25:19;;;;;;;14.43;8.07;;;23.30;71.80;;;;;;6154331;23;20260;-87
2021/07/19 08:27:48;;;;;;;13.02;8.35;;;23.60;69.60;;;;;;6130014;23;20179;-86
2021/07/19 08:30:17;;;;;;;10.10;7.30;;;23.70;63.50;;;;;;6162513;23;20207;-86
2021/07/19 08:32:46;;;;;;;8.68;7.07;;;25.10;60.60;;;;;;6131133;23;20186;-89
2021/07/19 08:35:14;;;;;;;11.50;7.07;;;26.30;48.90;;;;;;6151673;23;20521;-89
2021/07/19 08:37:44;;;;;;;11.20;7.30;;;27.20;43.70;;;;;;6154308;23;20201;-88
2021/07/19 08:40:13;;;;;;;8.98;6.93;;;26.60;41.10;;;;;;6153344;23;20269;-89
2021/07/19 08:42:41;;;;;;;11.25;6.85;;;26.60;43.80;;;;;;6155070;23;20257;-89
2021/07/19 08:45:11;;;;;;;11.70;8.05;;;27.20;43.70;;;;;;6153498;23;20582;-89
2021/07/19 08:47:38;;;;;;;7.53;6.75;;;27.90;38.00;;;;;;6153791;23;20290;-89
2021/07/19 08:50:07;;;;;;;10.13;6.35;;;29.20;35.50;;;;;;6152079;23;20321;-88
2021/07/19 08:52:35;;;;;;;9.38;5.97;;;30.60;32.70;;;;;;6154436;23;20175;-88
2021/07/19 08:55:04;;;;;;;8.38;7.35;;;31.30;28.30;;;;;;6153312;23;20289;-91
2021/07/19 08:57:31;;;;;;;7.68;6.80;;;31.30;26.70;;;;;;6152556;23;20694;-91
2021/07/19 09:00:04;;;;;;;9.00;6.00;;;28.90;31.10;;;;;;6151388;23;20277;-89
2021/07/19 09:02:31;;;;;;;6.90;6.30;;;27.20;37.60;;;;;;6152956;23;20163;-89
2021/07/19 09:04:58;;;;;;;7.93;6.20;;;27.50;37.80;;;;;;6152374;23;20214;-89
2021/07/19 09:07:26;;;;;;;8.73;6.20;;;27.60;37.90;;;;;;6152636;23;20269;-89
2021/07/19 09:09:54;;;;;;;7.00;5.63;;;27.70;38.00;;;;;;6151733;23;20686;-89
2021/07/19 09:12:32;;;;;;;6.00;5.50;;;28.70;35.10;;;;;;6153359;23;20213;-88
2021/07/19 09:15:01;;;;;;;11.57;5.80;;;31.20;28.70;;;;;;6153702;23;20206;-89
2021/07/19 09:17:30;;;;;;;11.07;5.97;;;33.40;23.80;;;;;;6155047;23;20663;-90
2021/07/19 09:19:57;;;;;;;8.30;5.93;;;34.50;20.60;;;;;;6155520;23;20582;-91
2021/07/19 09:22:27;;;;;;;6.63;6.03;;;35.00;19.00;;;;;;6156090;23;20582;-91
2021/07/19 09:25:05;;;;;;;7.65;6.13;;;35.10;18.00;;;;;;6153893;23;20686;-91
2021/07/19 09:27:33;;;;;;;6.80;6.20;;;35.70;18.30;;;;;;6153581;23;20167;-90
2021/07/19 09:30:11;;;;;;;6.70;6.10;;;34.30;18.80;;;;;;6154937;23;20256;-90
2021/07/19 09:32:55;;;;;;;6.68;5.82;;;34.30;18.80;;;;;;6157079;23;20162;-91
2021/07/19 09:35:23;;;;;;;6.40;5.80;;;34.70;19.00;;;;;;6155845;23;20579;-90
2021/07/19 09:37:50;;;;;;;6.88;5.97;;;35.30;19.20;;;;;;6157688;23;20249;-91
2021/07/19 09:40:18;;;;;;;8.05;6.35;;;36.40;17.50;;;;;;6158870;23;20288;-90
2021/07/19 09:42:47;;;;;;;7.53;6.72;;;36.70;16.10;;;;;;6156917;23;20175;-90
2021/07/19 09:45:26;;;;;;;7.68;6.85;;;36.80;14.50;;;;;;6132577;23;20222;-89
2021/07/19 09:48:01;;;;;;;7.38;6.68;;;36.40;16.00;;;;;;6157446;23;20652;-90
2021/07/19 09:50:38;;;;;;;6.80;6.20;;;37.40;15.40;;;;;;6156982;23;20277;-89
2021/07/19 09:53:05;;;;;;;6.72;6.13;;;36.60;15.70;;;;;;6155993;23;20269;-90
2021/07/19 09:55:32;;;;;;;6.82;6.20;;;35.60;18.50;;;;;;6155880;23;20606;-90
2021/07/19 09:58:00;;;;;;;6.53;5.93;;;35.50;17.40;;;;;;6157095;23;20293;-91
2021/07/19 10:00:30;;;;;;;6.43;5.93;;;35.30;16.80;;;;;;6159522;23;20206;-90
2021/07/19 10:02:58;;;;;;;6.55;6.05;;;35.40;17.80;;;;;;6157078;23;20181;-90
2021/07/19 10:05:26;;;;;;;6.80;6.25;;;35.90;17.70;;;;;;6155226;23;20580;-90
2021/07/19 10:07:54;;;;;;;7.22;6.40;;;36.00;17.80;;;;;;6156374;23;20246;-91
2021/07/19 10:10:33;;;;;;;7.07;6.38;;;36.50;15.70;;;;;;6157034;23;20257;-91
2021/07/19 10:13:01;;;;;;;7.13;6.43;;;36.80;16.00;;;;;;6156239;23;20245;-90
2021/07/19 10:15:33;;;;;;;8.00;7.05;;;36.70;15.20;;;;;;6155066;23;20241;-90
2021/07/19 10:18:00;;;;;;;7.10;6.40;;;36.30;15.00;;;;;;6156256;23;20241;-91
2021/07/19 10:20:28;;;;;;;6.88;5.95;;;35.80;16.80;;;;;;6156227;23;20230;-90
2021/07/19 10:25:46;;;;;;;6.93;6.22;;;35.70;16.10;;;;;;6156949;23;20209;-90
2021/07/19 10:28:15;;;;;;;7.95;5.82;;;35.50;16.90;;;;;;6131055;23;20201;-90
2021/07/19 10:30:43;;;;;;;6.30;5.70;;;34.60;18.00;;;;;;6155185;23;20210;-89
2021/07/19 10:33:10;;;;;;;8.80;5.20;;;33.80;19.90;;;;;;6156292;23;20171;-90
2021/07/19 10:35:37;;;;;;;5.65;5.15;;;32.40;20.00;;;;;;6155926;23;20281;-89
2021/07/19 10:38:10;;;;;;;5.72;4.90;;;31.40;24.20;;;;;;6156186;23;20178;-90
2021/07/19 10:40:39;;;;;;;7.57;4.60;;;30.70;26.00;;;;;;6155695;23;20674;-89
2021/07/19 10:43:11;;;;;;;5.72;4.85;;;29.80;26.10;;;;;;6129627;23;20241;-89
2021/07/19 10:45:41;;;;;;;6.45;4.90;;;29.20;28.30;;;;;;6129584;23;20281;-90
2021/07/19 10:48:10;;;;;;;7.43;4.30;;;30.10;31.00;;;;;;6129769;23;20214;-90
2021/07/19 10:50:41;;;;;;;5.00;4.15;;;31.10;27.00;;;;;;6155110;23;20277;-89
2021/07/19 10:53:19;;;;;;;7.22;4.30;;;32.40;22.10;;;;;;6155499;23;20250;-89
2021/07/19 10:55:57;;;;;;;7.40;4.32;;;33.40;20.00;;;;;;6129412;23;20206;-89
2021/07/19 10:58:29;;;;;;;7.45;4.55;;;34.10;18.70;;;;;;6154878;23;20238;-89
2021/07/19 11:00:57;;;;;;;6.22;4.60;;;34.50;18.80;;;;;;6130380;23;20170;-89
2021/07/19 11:03:38;;;;;;;5.95;4.72;;;34.50;16.70;;;;;;6155923;23;20175;-88
2021/07/19 11:06:05;;;;;;;6.97;4.68;;;34.80;19.90;;;;;;6156359;23;20167;-89
2021/07/19 11:08:32;;;;;;;5.40;4.90;;;34.70;17.60;;;;;;6130494;23;20253;-88
2021/07/19 11:11:00;;;;;;;7.13;4.97;;;33.80;18.50;;;;;;6155858;23;20544;-88
2021/07/19 11:13:30;;;;;;;8.57;4.75;;;32.90;18.60;;;;;;6155138;23;20226;-88
2021/07/19 11:15:58;;;;;;;6.95;4.70;;;32.40;19.30;;;;;;6156021;23;20270;-88
2021/07/19 11:18:30;;;;;;;6.43;4.50;;;31.60;23.20;;;;;;6155040;23;20257;-88
2021/07/19 11:20:59;;;;;;;5.95;4.40;;;30.30;23.60;;;;;;6155938;23;20198;-88
2021/07/19 11:23:29;;;;;;;11.57;4.05;;;29.30;25.80;;;;;;6156943;23;20238;-88
2021/07/19 11:25:59;;;;;;;6.28;4.00;;;28.30;26.50;;;;;;6156970;23;20281;-88
2021/07/19 11:28:29;;;;;;;6.35;3.90;;;28.30;30.60;;;;;;6155727;23;20615;-89
2021/07/19 11:31:10;;;;;;;5.95;3.78;;;28.30;27.90;;;;;;6156600;23;20265;-89
2021/07/19 11:33:41;;;;;;;7.85;3.60;;;28.80;28.00;;;;;;6155785;23;20202;-87
2021/07/19 11:36:22;;;;;;;6.47;3.90;;;28.80;27.80;;;;;;6158001;23;20278;-88
2021/07/19 11:38:58;;;;;;;7.25;4.13;;;29.10;27.60;;;;;;6155228;23;20261;-89
2021/07/19 11:41:26;;;;;;;5.38;3.70;;;29.20;30.10;;;;;;6156740;23;20163;-87
2021/07/19 11:43:55;;;;;;;8.88;4.15;;;29.40;25.40;;;;;;6155484;23;20222;-89
2021/07/19 11:46:30;;;;;;;7.72;3.70;;;29.40;26.30;;;;;;6154899;23;20874;-88
2021/07/19 11:49:02;;;;;;;6.07;3.95;;;29.40;25.70;;;;;;6154056;23;20713;-89
2021/07/19 11:51:30;;;;;;;7.47;3.42;;;29.00;26.30;;;;;;6154852;23;20266;-89
2021/07/19 11:53:58;;;;;;;6.30;3.60;;;28.70;29.90;;;;;;6154831;23;20199;-89
2021/07/19 11:56:27;;;;;;;4.72;3.58;;;28.20;28.90;;;;;;6128994;23;20198;-89
2021/07/19 11:58:56;;;;;;;5.30;3.55;;;27.40;28.90;;;;;;6155710;23;20229;-89
2021/07/19 12:01:31;;;;;;;10.90;3.58;;;27.10;30.10;;;;;;6158659;23;20175;-89
2021/07/19 12:04:01;;;;;;;5.53;3.55;;;27.30;30.00;;;;;;6158121;23;20230;-89
2021/07/19 12:06:29;;;;;;;3.95;3.25;;;27.50;33.00;;;;;;6131606;23;20171;-89
2021/07/19 12:09:00;;;;;;;4.90;3.50;;;27.70;29.10;;;;;;6155838;23;20277;-88
2021/07/19 12:11:28;;;;;;;7.97;3.50;;;28.00;29.20;;;;;;6159636;23;20214;-86
2021/07/19 12:13:59;;;;;;;7.25;3.78;;;27.50;30.40;;;;;;6157447;23;20277;-87
2021/07/19 12:16:34;;;;;;;5.90;3.55;;;27.50;32.60;;;;;;6169367;23;20251;-86
2021/07/19 12:19:04;;;;;;;8.38;3.53;;;27.40;30.20;;;;;;6143001;23;20208;-89
2021/07/19 12:21:38;;;;;;;4.53;3.33;;;27.20;30.40;;;;;;6142676;23;20183;-87
2021/07/19 12:24:16;;;;;;;5.07;3.00;;;27.00;30.10;;;;;;6158497;23;20202;-87
2021/07/19 12:26:45;;;;;;;5.82;3.30;;;26.70;32.90;;;;;;6155900;23;20195;-87
2021/07/19 12:29:15;;;;;;;5.28;3.25;;;26.60;34.10;;;;;;6153659;23;20223;-87
2021/07/19 12:31:51;;;;;;;5.13;3.30;;;26.50;32.00;;;;;;6129753;23;20195;-87
2021/07/19 12:34:23;;;;;;;4.30;3.22;;;26.20;33.80;;;;;;6154513;23;20274;-87
2021/07/19 12:36:53;;;;;;;8.70;3.53;;;26.30;34.40;;;;;;6155070;23;20955;-87
2021/07/19 12:39:23;;;;;;;5.90;3.60;;;26.70;34.10;;;;;;6104346;23;20206;-87
2021/07/19 12:41:52;;;;;;;5.47;3.38;;;27.10;31.90;;;;;;6155981;23;20968;-87
2021/07/19 12:44:23;;;;;;;4.75;3.25;;;27.40;33.30;;;;;;6154786;23;20274;-86
2021/07/19 12:46:53;;;;;;;5.10;3.05;;;27.40;32.20;;;;;;6157299;23;20167;-86
2021/07/19 12:49:32;;;;;;;6.10;2.97;;;27.20;34.50;;;;;;6162384;23;20213;-85
2021/07/19 12:52:01;;;;;;;3.78;3.15;;;27.30;34.10;;;;;;6158340;23;20163;-86
2021/07/19 12:54:30;;;;;;;4.28;3.30;;;26.90;32.30;;;;;;6130111;23;20198;-86
2021/07/19 12:56:58;;;;;;;5.25;3.33;;;27.00;33.80;;;;;;6132789;23;20265;-85
2021/07/19 12:59:25;;;;;;;5.45;3.08;;;27.00;34.20;;;;;;6134587;23;20214;-86
2021/07/19 13:01:58;;;;;;;5.53;3.40;;;27.00;31.90;;;;;;6162668;23;20211;-85
2021/07/19 13:04:25;;;;;;;4.28;3.30;;;27.00;32.50;;;;;;6129744;23;20205;-86
2021/07/19 13:06:56;;;;;;;4.47;3.42;;;26.60;35.60;;;;;;6156284;23;20178;-87
2021/07/19 13:09:26;;;;;;;3.80;3.00;;;26.50;37.20;;;;;;6155358;23;20202;-87
2021/07/19 13:12:01;;;;;;;5.05;3.38;;;26.30;37.00;;;;;;6155549;23;20492;-87
2021/07/19 13:14:39;;;;;;;7.68;3.53;;;26.40;36.40;;;;;;6155710;23;20580;-87
2021/07/19 13:17:06;;;;;;;8.10;3.80;;;26.70;34.80;;;;;;6156078;23;20183;-86
2021/07/19 13:19:34;;;;;;;6.65;3.47;;;27.00;32.40;;;;;;6156158;23;20215;-87
2021/07/19 13:22:08;;;;;;;5.35;3.30;;;27.10;34.60;;;;;;6155679;23;20261;-87
2021/07/19 13:24:37;;;;;;;3.95;3.45;;;27.10;32.30;;;;;;6131392;23;20277;-86
2021/07/19 13:27:05;;;;;;;4.75;3.33;;;27.20;32.50;;;;;;6155986;23;20199;-86
2021/07/19 13:29:32;;;;;;;6.72;3.47;;;26.90;30.60;;;;;;6155998;23;20199;-86
2021/07/19 13:32:09;;;;;;;7.88;3.47;;;26.70;32.50;;;;;;6154763;23;20576;-89
2021/07/19 13:34:39;;;;;;;6.72;3.05;;;26.50;34.50;;;;;;6158034;23;20226;-89
2021/07/19 13:37:08;;;;;;;4.13;3.55;;;26.20;33.60;;;;;;6155404;23;20199;-89
2021/07/19 13:39:39;;;;;;;5.07;3.55;;;26.10;36.90;;;;;;6128845;23;20322;-90
2021/07/19 13:42:09;;;;;;;5.38;3.40;;;26.20;37.00;;;;;;6129593;23;20179;-89
2021/07/19 13:44:37;;;;;;;3.90;3.17;;;26.20;37.00;;;;;;6153892;23;20203;-88
2021/07/19 13:47:06;;;;;;;4.65;3.20;;;26.30;32.20;;;;;;6155330;23;20258;-88